Terminal Aerodrome Forecast
Issued by NWS Twin Cities, MN

Home | Current Version | Previous Version | Graphics & Text | Print | Product List | Glossary On
Versions: 1 2 3 4 5 6 7 8 9 10 11 12 13 14 15 16 17 18 19 20 21 22 23 24 25 26 27 28 29 30 31
000
FTUS43 KMPX 221136
TAFMSP
TAF
KMSP 221136Z 2212/2318 17005KT P6SM OVC014
      TEMPO 2213/2214 SCT015 BKN020
     FM221400 29003KT P6SM FEW020
     FM221600 22010KT P6SM SCT012
      TEMPO 2217/2220 BKN012
     FM230800 20011KT P6SM BKN090
     FM231200 23012KT P6SM VCSH SCT020 OVC040 PROB30 2312/2315
      -FZDZRA=

USA.gov is the U.S. government's official web portal to all federal, state and local government web resources and services.